Time;durP1;ratioP1;P1;durP2;ratioP2;P2;SDS_P1;SDS_P2;PMS_P1;PMS_P2;Temp;Humidity;BMP_temperature;BMP_pressure;BME280_temperature;BME280_humidity;BME280_pressure;Samples;Min_cycle;Max_cycle;Signal;HPM_P1;HPM_P2
2022/10/28 00:00:04;;;;;;;22.02;4.07;;;18.70;99.90;;;;;;5015501;28;20079;-92
2022/10/28 00:02:30;;;;;;;13.95;4.03;;;18.70;99.90;;;;;;5020221;28;20107;-92
2022/10/28 00:04:55;;;;;;;17.92;4.05;;;18.70;99.90;;;;;;5024181;28;20070;-93
2022/10/28 00:07:21;;;;;;;14.60;3.97;;;18.70;99.90;;;;;;5015656;28;20479;-93
2022/10/28 00:09:46;;;;;;;21.48;5.60;;;18.70;99.90;;;;;;5014513;28;20090;-92
2022/10/28 00:12:12;;;;;;;20.20;4.07;;;18.70;99.90;;;;;;5026935;28;20466;-93
2022/10/28 00:14:38;;;;;;;19.98;5.70;;;18.70;99.90;;;;;;5022067;28;20037;-92
2022/10/28 00:17:03;;;;;;;17.70;4.13;;;18.70;99.90;;;;;;5028091;28;20153;-92
2022/10/28 00:19:29;;;;;;;11.48;3.50;;;18.70;99.90;;;;;;5022150;28;20030;-91
2022/10/28 00:21:55;;;;;;;11.88;4.70;;;18.70;99.90;;;;;;5028557;28;20112;-92
2022/10/28 00:24:20;;;;;;;13.05;3.72;;;18.70;99.90;;;;;;5027936;28;20025;-92
2022/10/28 00:26:46;;;;;;;19.52;3.90;;;18.70;99.90;;;;;;5014996;28;20030;-90
2022/10/28 00:29:15;;;;;;;20.02;3.83;;;18.70;99.90;;;;;;5026587;28;20032;-92
2022/10/28 00:31:41;;;;;;;20.15;4.15;;;18.70;99.90;;;;;;5025388;28;20045;-92
2022/10/28 00:34:14;;;;;;;18.85;4.25;;;18.70;99.90;;;;;;5026282;28;20110;-90
2022/10/28 00:36:42;;;;;;;16.92;4.68;;;18.70;99.90;;;;;;5022988;28;20045;-91
2022/10/28 00:39:16;;;;;;;12.13;3.53;;;18.70;99.90;;;;;;5020412;28;20026;-92
2022/10/28 00:41:45;;;;;;;11.45;3.40;;;18.70;99.90;;;;;;5026302;28;20026;-93
2022/10/28 00:44:36;;;;;;;11.48;3.83;;;18.80;99.90;;;;;;5028128;28;20036;-91
2022/10/28 00:47:02;;;;;;;24.60;3.50;;;18.80;99.90;;;;;;5026045;28;20501;-93
2022/10/28 00:49:31;;;;;;;26.98;3.88;;;18.70;99.90;;;;;;5025444;28;20471;-92
2022/10/28 00:52:06;;;;;;;13.15;3.40;;;18.80;99.90;;;;;;5009024;28;20030;-93
2022/10/28 00:54:32;;;;;;;8.98;3.08;;;18.90;99.90;;;;;;5021755;28;20478;-93
2022/10/28 00:57:01;;;;;;;16.38;2.97;;;18.80;99.90;;;;;;5017751;28;20049;-95
2022/10/28 00:59:31;;;;;;;15.85;3.17;;;18.90;99.90;;;;;;5026243;28;20030;-89
2022/10/28 01:01:57;;;;;;;16.02;4.28;;;18.90;99.90;;;;;;5029036;28;20429;-92
2022/10/28 01:04:23;;;;;;;13.38;3.90;;;19.00;99.90;;;;;;5024306;28;20057;-92
2022/10/28 01:06:50;;;;;;;16.10;4.10;;;19.00;99.90;;;;;;5026322;28;20029;-93
2022/10/28 01:09:16;;;;;;;19.92;3.63;;;19.10;99.90;;;;;;5027446;28;20025;-91
2022/10/28 01:12:03;;;;;;;16.85;3.92;;;19.10;99.90;;;;;;5018741;28;20040;-92
2022/10/28 01:14:53;;;;;;;11.77;3.80;;;19.10;99.90;;;;;;5027340;28;20030;-90
2022/10/28 01:17:40;;;;;;;20.85;3.83;;;19.20;99.90;;;;;;5021474;28;20037;-94
2022/10/28 01:20:24;;;;;;;17.80;3.85;;;19.20;99.90;;;;;;5023818;28;20386;-92
2022/10/28 01:23:19;;;;;;;25.00;4.20;;;19.20;99.90;;;;;;5024329;28;20021;-92
2022/10/28 01:25:51;;;;;;;14.23;3.97;;;19.20;99.90;;;;;;5027381;28;20065;-90
2022/10/28 01:28:37;;;;;;;16.90;3.40;;;19.20;99.90;;;;;;5022660;28;20507;-90
2022/10/28 01:31:24;;;;;;;9.80;3.33;;;19.30;99.90;;;;;;5020566;28;20466;-88
2022/10/28 01:34:07;;;;;;;12.27;3.58;;;19.30;99.90;;;;;;5021376;28;20041;-90
2022/10/28 01:36:39;;;;;;;10.70;3.70;;;19.30;99.90;;;;;;5026448;28;20037;-91
2022/10/28 01:39:29;;;;;;;13.15;4.03;;;19.30;99.90;;;;;;5024358;28;20171;-89
2022/10/28 01:42:02;;;;;;;15.52;3.63;;;19.30;99.90;;;;;;5019716;28;20026;-91
2022/10/28 01:44:39;;;;;;;8.43;3.22;;;19.30;99.90;;;;;;5021537;28;20030;-90
2022/10/28 01:47:10;;;;;;;17.95;4.55;;;19.30;99.90;;;;;;5020851;28;20025;-91
2022/10/28 01:49:48;;;;;;;10.82;3.22;;;19.20;99.90;;;;;;5018855;28;20459;-90
2022/10/28 01:52:19;;;;;;;13.30;4.72;;;19.20;99.90;;;;;;5024787;28;20029;-88
2022/10/28 01:54:49;;;;;;;13.68;4.50;;;19.20;99.90;;;;;;5020415;28;20521;-89
2022/10/28 01:57:17;;;;;;;14.88;3.53;;;19.20;99.90;;;;;;5017439;28;20049;-90
2022/10/28 01:59:46;;;;;;;21.20;3.88;;;19.20;99.90;;;;;;5020629;28;20138;-93
2022/10/28 02:02:13;;;;;;;14.57;3.75;;;19.30;99.90;;;;;;5022156;28;20028;-86
2022/10/28 02:04:39;;;;;;;15.35;3.78;;;19.20;99.90;;;;;;5024543;28;20030;-92
2022/10/28 02:07:04;;;;;;;23.15;3.60;;;19.20;99.90;;;;;;5003130;28;20040;-91
2022/10/28 02:09:33;;;;;;;27.90;3.58;;;19.30;99.90;;;;;;5026358;28;20030;-89
2022/10/28 02:12:49;;;;;;;17.92;3.55;;;19.30;99.90;;;;;;5025062;28;20092;-90
2022/10/28 02:15:50;;;;;;;24.13;3.58;;;19.30;99.90;;;;;;4988906;28;20025;-92
2022/10/28 02:18:51;;;;;;;17.02;3.97;;;19.20;99.90;;;;;;5021685;28;20029;-92
2022/10/28 02:21:36;;;;;;;23.00;3.75;;;19.20;99.90;;;;;;5007805;28;20483;-91
2022/10/28 02:24:13;;;;;;;12.40;3.63;;;19.20;99.90;;;;;;5019661;28;20029;-90
2022/10/28 02:26:43;;;;;;;12.63;3.42;;;19.20;99.90;;;;;;5020898;28;20041;-91
2022/10/28 02:29:33;;;;;;;25.92;3.60;;;19.10;99.90;;;;;;5020556;28;20033;-92
2022/10/28 02:32:07;;;;;;;19.10;3.35;;;19.00;99.90;;;;;;5018378;28;20040;-92
2022/10/28 02:34:39;;;;;;;13.48;4.28;;;19.00;99.90;;;;;;5021992;28;20029;-91
2022/10/28 02:37:16;;;;;;;13.60;3.15;;;19.00;99.90;;;;;;5017983;28;20034;-91
2022/10/28 02:39:47;;;;;;;18.83;3.40;;;19.00;99.90;;;;;;5007684;28;20493;-88
2022/10/28 02:42:41;;;;;;;26.00;3.83;;;19.10;99.90;;;;;;5020982;28;20044;-92
2022/10/28 02:45:13;;;;;;;15.30;3.17;;;19.10;99.90;;;;;;5019434;28;20029;-91
2022/10/28 02:47:46;;;;;;;24.33;4.53;;;19.10;99.90;;;;;;5021897;28;20033;-92
2022/10/28 02:50:16;;;;;;;14.02;3.42;;;19.10;99.90;;;;;;5017610;28;20025;-91
2022/10/28 02:52:47;;;;;;;17.52;3.75;;;19.20;99.90;;;;;;5018231;28;20025;-92
2022/10/28 02:55:13;;;;;;;21.98;4.85;;;19.20;99.90;;;;;;5021402;28;20036;-92
2022/10/28 02:57:43;;;;;;;15.18;3.70;;;19.20;99.90;;;;;;5020076;28;20378;-92
2022/10/28 03:00:19;;;;;;;21.50;4.15;;;19.30;99.90;;;;;;5021045;28;20049;-87
2022/10/28 03:02:45;;;;;;;17.83;4.30;;;19.30;99.90;;;;;;5021543;28;20134;-92
2022/10/28 03:05:13;;;;;;;12.68;3.40;;;19.40;99.90;;;;;;5023037;28;20030;-89
2022/10/28 03:07:39;;;;;;;21.15;4.03;;;19.40;99.90;;;;;;5019402;28;20029;-92
2022/10/28 03:10:05;;;;;;;12.88;4.07;;;19.50;99.90;;;;;;5017115;28;20037;-90
2022/10/28 03:12:30;;;;;;;10.70;3.67;;;19.50;99.90;;;;;;5023921;28;20049;-93
2022/10/28 03:14:56;;;;;;;16.38;3.67;;;19.60;99.90;;;;;;5026712;28;20083;-96
2022/10/28 03:17:22;;;;;;;24.30;3.50;;;19.50;99.90;;;;;;5019203;28;20046;-93
2022/10/28 03:19:47;;;;;;;36.60;4.25;;;19.50;99.90;;;;;;5023540;28;20475;-93
2022/10/28 03:22:13;;;;;;;10.75;3.10;;;19.60;99.90;;;;;;5019569;28;20026;-96
2022/10/28 03:24:38;;;;;;;11.07;3.13;;;19.60;99.90;;;;;;5001520;28;20036;-96
2022/10/28 03:27:04;;;;;;;15.30;3.60;;;19.60;99.90;;;;;;5022324;28;20028;-96
2022/10/28 03:29:30;;;;;;;9.38;3.38;;;19.50;99.90;;;;;;5021568;28;20032;-93
2022/10/28 03:31:55;;;;;;;18.50;3.38;;;19.50;99.90;;;;;;5026635;28;20402;-91
2022/10/28 03:34:21;;;;;;;12.82;3.53;;;19.50;99.90;;;;;;5027328;28;20033;-95
2022/10/28 03:36:49;;;;;;;13.15;3.28;;;19.40;99.90;;;;;;5023923;28;20472;-92
2022/10/28 03:39:15;;;;;;;12.75;3.28;;;19.40;99.90;;;;;;5007523;28;20403;-93
2022/10/28 03:41:41;;;;;;;19.13;3.83;;;19.40;99.90;;;;;;5026139;28;20040;-95
2022/10/28 03:44:06;;;;;;;11.10;3.80;;;19.30;99.90;;;;;;5023583;28;20084;-89
2022/10/28 03:46:32;;;;;;;12.45;3.20;;;19.20;99.90;;;;;;5021352;28;20029;-93
2022/10/28 03:48:58;;;;;;;7.35;2.85;;;19.10;99.90;;;;;;5019206;28;20030;-95
2022/10/28 03:51:23;;;;;;;10.52;3.60;;;19.10;99.90;;;;;;5023887;28;20025;-96
2022/10/28 03:53:49;;;;;;;19.33;3.47;;;19.00;99.90;;;;;;5026287;28;20033;-93
2022/10/28 03:56:14;;;;;;;14.07;3.50;;;18.90;99.90;;;;;;5019789;28;20475;-96
2022/10/28 03:58:40;;;;;;;10.75;2.75;;;18.80;99.90;;;;;;5024109;28;20085;-96
2022/10/28 04:01:05;;;;;;;13.32;2.90;;;18.80;99.90;;;;;;5018947;28;20129;-91
2022/10/28 04:03:31;;;;;;;15.82;4.43;;;18.70;99.90;;;;;;5022914;28;20116;-95
2022/10/28 04:05:57;;;;;;;5.13;2.80;;;18.60;99.90;;;;;;5021657;28;20080;-96
2022/10/28 04:08:25;;;;;;;10.43;3.80;;;18.50;99.90;;;;;;5023557;28;20071;-96
2022/10/28 04:10:51;;;;;;;15.27;4.03;;;18.50;99.90;;;;;;5016987;28;20057;-96
2022/10/28 04:13:17;;;;;;;13.10;3.40;;;18.50;99.90;;;;;;5025229;28;20053;-94
2022/10/28 04:15:43;;;;;;;14.55;3.75;;;18.40;99.90;;;;;;5023717;28;20491;-95
2022/10/28 04:18:08;;;;;;;9.88;3.08;;;18.30;99.90;;;;;;5018815;28;20029;-96
2022/10/28 04:20:34;;;;;;;15.45;3.92;;;18.30;99.90;;;;;;5018355;28;20025;-96
2022/10/28 04:23:00;;;;;;;17.30;3.78;;;18.30;99.90;;;;;;5025022;28;20032;-93
2022/10/28 04:25:26;;;;;;;13.35;3.53;;;18.40;99.90;;;;;;5027840;28;20022;-93
2022/10/28 04:27:52;;;;;;;18.23;3.40;;;18.60;99.90;;;;;;5019972;28;20106;-93
2022/10/28 04:30:21;;;;;;;20.55;4.10;;;18.70;99.90;;;;;;5015954;28;20374;-93
2022/10/28 04:32:47;;;;;;;16.00;3.33;;;18.90;99.90;;;;;;5021465;28;20030;-91
2022/10/28 04:35:13;;;;;;;9.80;3.28;;;19.20;99.90;;;;;;5016368;28;20040;-96
2022/10/28 04:37:39;;;;;;;14.82;4.57;;;19.40;99.90;;;;;;5017163;28;20033;-91
2022/10/28 04:40:06;;;;;;;16.35;4.40;;;19.40;99.90;;;;;;5020352;28;20033;-93
2022/10/28 04:42:32;;;;;;;14.98;3.92;;;19.50;99.90;;;;;;5018000;28;20095;-90
2022/10/28 04:44:59;;;;;;;18.98;3.40;;;19.50;99.90;;;;;;5014130;28;20025;-91
2022/10/28 04:47:25;;;;;;;25.73;4.60;;;19.60;99.90;;;;;;5017121;28;20116;-90
2022/10/28 04:49:50;;;;;;;17.30;3.67;;;19.60;99.90;;;;;;5017572;28;20125;-95
2022/10/28 04:52:16;;;;;;;14.98;3.53;;;19.60;99.90;;;;;;5019729;28;20084;-91
2022/10/28 04:54:41;;;;;;;20.10;5.03;;;19.60;99.90;;;;;;5016849;28;20589;-91
2022/10/28 04:57:07;;;;;;;20.02;3.55;;;19.60;99.90;;;;;;5018742;28;20045;-93
2022/10/28 04:59:33;;;;;;;25.00;3.95;;;19.60;99.90;;;;;;5022342;28;20441;-94
2022/10/28 05:01:59;;;;;;;15.90;3.50;;;19.60;99.90;;;;;;5022484;28;20182;-94
2022/10/28 05:04:24;;;;;;;19.80;3.58;;;19.60;99.90;;;;;;5020923;28;20108;-93
2022/10/28 05:06:50;;;;;;;24.05;3.95;;;19.70;99.90;;;;;;5023083;28;20461;-94
2022/10/28 05:09:15;;;;;;;22.60;4.03;;;19.70;99.90;;;;;;5025182;28;20036;-91
2022/10/28 05:11:41;;;;;;;19.15;5.07;;;19.70;99.90;;;;;;5016927;28;20141;-91
2022/10/28 05:14:07;;;;;;;29.48;4.90;;;19.80;99.90;;;;;;5009412;28;20122;-93
2022/10/28 05:16:32;;;;;;;16.25;3.75;;;19.80;99.90;;;;;;5010713;28;20439;-94
2022/10/28 05:18:58;;;;;;;16.80;3.90;;;19.70;99.90;;;;;;5009017;28;20029;-93
2022/10/28 05:21:24;;;;;;;20.23;3.90;;;19.70;99.90;;;;;;5000578;28;20030;-92
2022/10/28 05:23:50;;;;;;;21.08;3.47;;;19.80;99.90;;;;;;5001539;28;20037;-92
2022/10/28 05:26:16;;;;;;;20.38;4.85;;;19.70;99.90;;;;;;5007256;28;20171;-91
2022/10/28 05:28:42;;;;;;;21.67;3.72;;;19.70;99.90;;;;;;5007139;28;20057;-91
2022/10/28 05:31:08;;;;;;;19.38;4.13;;;19.70;99.90;;;;;;5005179;28;20111;-95
2022/10/28 05:33:34;;;;;;;23.33;3.45;;;19.70;99.90;;;;;;5007989;28;20388;-91
2022/10/28 05:35:59;;;;;;;26.67;3.83;;;19.70;99.90;;;;;;5006364;28;20499;-94
2022/10/28 05:38:25;;;;;;;21.35;4.18;;;19.60;99.90;;;;;;5006605;28;20030;-91
2022/10/28 05:40:51;;;;;;;21.98;3.65;;;19.70;99.90;;;;;;5008490;28;20037;-91
2022/10/28 05:43:17;;;;;;;17.52;3.88;;;19.70;99.90;;;;;;4981319;28;20025;-92
2022/10/28 05:45:42;;;;;;;21.10;4.18;;;19.60;99.90;;;;;;5008584;28;20068;-91
2022/10/28 05:48:08;;;;;;;11.25;3.63;;;19.60;99.90;;;;;;5007196;28;20199;-93
2022/10/28 05:50:34;;;;;;;23.23;5.03;;;19.60;99.90;;;;;;5007416;28;20534;-95
2022/10/28 05:53:00;;;;;;;13.00;3.50;;;19.70;99.90;;;;;;5006903;28;20096;-92
2022/10/28 05:55:28;;;;;;;19.33;4.57;;;19.70;99.90;;;;;;5007727;28;20055;-93
2022/10/28 05:57:54;;;;;;;13.38;3.55;;;19.60;99.90;;;;;;5008385;28;20025;-92
2022/10/28 06:00:24;;;;;;;20.50;3.97;;;19.60;99.90;;;;;;5006208;28;20030;-91
2022/10/28 06:02:49;;;;;;;21.63;3.70;;;19.70;99.90;;;;;;5007234;28;20412;-92
2022/10/28 06:05:15;;;;;;;20.77;3.67;;;19.70;99.90;;;;;;5008457;28;20032;-93
2022/10/28 06:07:41;;;;;;;17.13;3.95;;;19.80;99.90;;;;;;5009417;28;20038;-92
2022/10/28 06:10:08;;;;;;;23.80;4.18;;;20.00;99.90;;;;;;5001972;28;20468;-91
2022/10/28 06:12:34;;;;;;;31.48;4.85;;;20.10;99.90;;;;;;5020233;28;20135;-89
2022/10/28 06:15:00;;;;;;;30.05;3.40;;;20.20;99.90;;;;;;5029449;28;20034;-89
2022/10/28 06:17:26;;;;;;;16.90;3.85;;;20.40;99.90;;;;;;5019113;28;20033;-91
2022/10/28 06:19:52;;;;;;;25.15;5.10;;;20.50;99.90;;;;;;5018640;28;20033;-91
2022/10/28 06:22:19;;;;;;;17.63;3.88;;;20.50;99.90;;;;;;5012753;28;20068;-93
2022/10/28 06:24:45;;;;;;;17.10;3.83;;;20.60;99.90;;;;;;5024499;28;20109;-92
2022/10/28 06:27:11;;;;;;;14.77;3.17;;;20.70;99.90;;;;;;5017257;28;20073;-94
2022/10/28 06:29:36;;;;;;;18.88;3.30;;;20.60;99.90;;;;;;5012245;28;20037;-94
2022/10/28 06:32:02;;;;;;;25.77;3.97;;;20.60;99.90;;;;;;5020310;28;20308;-92
2022/10/28 06:34:28;;;;;;;18.27;3.20;;;20.60;99.90;;;;;;5019906;28;20152;-91
2022/10/28 06:36:53;;;;;;;17.58;4.13;;;20.60;99.90;;;;;;5020386;28;20147;-88
2022/10/28 06:39:22;;;;;;;15.45;3.40;;;20.60;99.90;;;;;;5019760;28;20482;-90
2022/10/28 06:46:04;;;;;;;20.50;3.55;;;20.60;99.90;;;;;;5115532;23;20048;-90
2022/10/28 07:05:51;;;;;;;11.52;3.10;;;20.30;99.90;;;;;;5267756;23;20063;-84
2022/10/28 07:08:17;;;;;;;15.20;3.45;;;20.40;99.90;;;;;;4969571;28;20031;-88
2022/10/28 07:10:42;;;;;;;15.88;3.08;;;20.40;99.90;;;;;;4969157;28;20027;-85
2022/10/28 07:13:08;;;;;;;13.40;3.33;;;20.50;99.90;;;;;;4969928;28;20117;-90
2022/10/28 07:15:34;;;;;;;18.75;3.97;;;20.50;99.90;;;;;;4969453;28;20031;-89
2022/10/28 07:18:00;;;;;;;20.48;4.68;;;20.50;99.90;;;;;;4969086;28;20027;-84
2022/10/28 07:20:27;;;;;;;23.92;3.08;;;20.50;99.90;;;;;;4967093;28;20026;-84
2022/10/28 07:22:59;;;;;;;14.70;3.05;;;20.50;99.90;;;;;;4966256;28;20109;-82
2022/10/28 07:25:27;;;;;;;29.33;3.83;;;20.50;99.90;;;;;;4967828;28;20404;-84
2022/10/28 07:27:53;;;;;;;25.17;4.72;;;20.50;99.90;;;;;;4968030;28;20039;-83
2022/10/28 07:30:18;;;;;;;12.32;3.47;;;20.60;99.90;;;;;;4967301;28;20607;-87
2022/10/28 07:32:44;;;;;;;17.00;4.00;;;20.60;99.90;;;;;;4965411;28;20503;-85
2022/10/28 07:35:10;;;;;;;26.30;4.60;;;20.70;99.90;;;;;;4967008;28;20256;-88
2022/10/28 07:37:38;;;;;;;11.38;3.15;;;20.70;99.90;;;;;;4963036;28;20456;-84
2022/10/28 07:40:04;;;;;;;18.38;3.50;;;20.60;99.90;;;;;;4967586;28;20384;-87
2022/10/28 07:42:30;;;;;;;20.02;4.47;;;20.70;99.90;;;;;;4964282;28;20504;-87
2022/10/28 07:44:55;;;;;;;17.52;3.97;;;20.70;99.90;;;;;;4964408;28;20121;-90
2022/10/28 07:47:21;;;;;;;19.77;4.28;;;20.70;99.90;;;;;;4963789;28;20039;-84
2022/10/28 07:49:46;;;;;;;24.17;5.03;;;20.70;99.90;;;;;;4966550;28;20063;-89
2022/10/28 07:52:12;;;;;;;16.98;4.20;;;20.80;99.90;;;;;;4963225;28;20027;-83
2022/10/28 07:54:37;;;;;;;19.38;3.47;;;20.70;99.90;;;;;;4966802;28;20109;-87
2022/10/28 07:57:03;;;;;;;13.25;2.97;;;20.80;99.90;;;;;;4966571;28;20037;-88
2022/10/28 07:59:29;;;;;;;18.58;3.28;;;20.90;99.90;;;;;;4968354;28;20031;-83
2022/10/28 08:01:54;;;;;;;24.33;3.63;;;21.00;99.90;;;;;;4966245;28;20046;-85
2022/10/28 08:04:20;;;;;;;15.95;4.18;;;21.00;99.90;;;;;;4965834;28;20035;-86
2022/10/28 08:06:45;;;;;;;24.20;5.05;;;21.10;99.90;;;;;;4963010;28;20031;-87
2022/10/28 08:09:11;;;;;;;12.63;3.15;;;21.20;99.90;;;;;;4962174;28;20142;-85
2022/10/28 08:11:37;;;;;;;19.25;3.88;;;21.30;99.90;;;;;;4967695;28;20117;-83
2022/10/28 08:14:02;;;;;;;25.63;3.40;;;21.50;99.90;;;;;;4963426;28;20033;-84
2022/10/28 08:16:28;;;;;;;17.15;3.40;;;21.60;99.90;;;;;;4957780;28;20035;-87
2022/10/28 08:18:55;;;;;;;13.63;3.47;;;21.60;99.90;;;;;;4963061;28;20042;-88
2022/10/28 08:21:22;;;;;;;17.40;3.03;;;21.80;99.90;;;;;;4966880;28;20015;-83
2022/10/28 08:23:48;;;;;;;14.05;3.13;;;21.80;99.90;;;;;;4959393;28;20039;-88
2022/10/28 08:26:15;;;;;;;12.88;3.53;;;21.90;99.90;;;;;;4967527;28;20049;-85
2022/10/28 08:28:42;;;;;;;20.33;5.30;;;21.80;99.90;;;;;;4968249;28;20546;-83
2022/10/28 08:31:08;;;;;;;17.08;4.10;;;21.80;99.90;;;;;;4970144;28;20030;-84
2022/10/28 08:33:35;;;;;;;23.15;4.00;;;21.80;99.90;;;;;;4972359;28;20019;-88
2022/10/28 08:36:01;;;;;;;14.93;3.38;;;21.70;99.90;;;;;;4972773;28;20023;-87
2022/10/28 08:38:27;;;;;;;12.93;3.85;;;21.60;99.90;;;;;;4971334;28;20061;-87
2022/10/28 08:41:27;;;;;;;23.05;3.60;;;21.70;99.90;;;;;;4972077;28;20027;-89
2022/10/28 08:44:20;;;;;;;25.42;3.80;;;21.70;99.90;;;;;;4966156;28;20015;-87
2022/10/28 08:47:10;;;;;;;13.70;3.25;;;21.70;99.90;;;;;;4970713;28;20058;-89
2022/10/28 08:49:40;;;;;;;23.05;3.08;;;21.80;99.90;;;;;;4966780;28;20034;-83
2022/10/28 08:52:17;;;;;;;8.73;3.05;;;21.80;99.90;;;;;;4966808;28;20176;-83
2022/10/28 08:54:50;;;;;;;19.45;2.88;;;21.80;99.90;;;;;;4970216;28;20027;-87
2022/10/28 08:57:28;;;;;;;14.02;2.83;;;21.80;99.90;;;;;;4971753;28;20042;-86
2022/10/28 08:59:54;;;;;;;13.02;2.83;;;21.90;99.90;;;;;;4971097;28;20037;-84
2022/10/28 09:02:34;;;;;;;12.35;3.13;;;21.90;99.90;;;;;;4972057;28;20030;-84
2022/10/28 09:05:16;;;;;;;12.52;3.08;;;22.00;99.90;;;;;;4971953;28;20396;-89
2022/10/28 09:07:42;;;;;;;10.30;2.88;;;22.10;99.90;;;;;;4963877;28;20038;-84
2022/10/28 09:10:12;;;;;;;15.38;3.03;;;22.10;99.90;;;;;;4971666;28;20396;-83
2022/10/28 09:12:41;;;;;;;13.55;2.63;;;22.20;99.90;;;;;;4965758;28;20122;-85
2022/10/28 09:15:44;;;;;;;15.15;3.22;;;22.30;99.90;;;;;;4970314;28;20038;-84
2022/10/28 09:18:35;;;;;;;17.02;2.55;;;22.30;99.90;;;;;;4967707;28;20062;-85
2022/10/28 09:21:08;;;;;;;15.95;2.88;;;22.30;99.90;;;;;;4968438;28;20598;-85
2022/10/28 09:23:39;;;;;;;16.20;3.30;;;22.40;99.90;;;;;;4969139;28;20109;-87
2022/10/28 09:26:26;;;;;;;18.23;3.55;;;22.50;99.90;;;;;;4968706;28;20473;-85
2022/10/28 09:29:38;;;;;;;16.27;2.88;;;22.50;99.90;;;;;;4968881;28;20058;-84
2022/10/28 09:32:52;;;;;;;24.25;3.92;;;22.50;99.90;;;;;;4969416;28;20031;-86
2022/10/28 09:35:23;;;;;;;12.60;2.67;;;22.60;99.90;;;;;;4969948;28;20050;-83
2022/10/28 09:38:01;;;;;;;17.98;3.50;;;22.70;99.90;;;;;;4964681;28;20054;-85
2022/10/28 09:40:30;;;;;;;13.15;2.65;;;22.70;99.90;;;;;;4970082;28;20320;-86
2022/10/28 09:43:25;;;;;;;16.00;3.17;;;22.80;99.90;;;;;;4966213;28;20136;-80
2022/10/28 09:45:56;;;;;;;16.75;4.40;;;22.90;99.90;;;;;;4968201;28;20515;-85
2022/10/28 09:48:27;;;;;;;10.73;2.15;;;23.00;99.20;;;;;;4971128;28;20034;-90
2022/10/28 09:50:55;;;;;;;10.50;3.35;;;23.10;98.30;;;;;;4970553;28;20125;-85
2022/10/28 09:53:47;;;;;;;7.47;3.08;;;23.20;98.70;;;;;;4970791;28;20034;-81
2022/10/28 09:56:14;;;;;;;14.40;2.75;;;23.20;97.50;;;;;;4966161;28;20123;-84
2022/10/28 09:58:46;;;;;;;18.23;2.58;;;23.30;96.10;;;;;;4969313;28;20030;-84
2022/10/28 10:01:12;;;;;;;19.35;3.40;;;23.30;96.60;;;;;;4959322;28;20464;-85
2022/10/28 10:03:39;;;;;;;8.85;2.67;;;23.40;96.80;;;;;;4964030;28;20043;-82
2022/10/28 10:06:27;;;;;;;11.80;2.80;;;23.50;95.70;;;;;;4962259;28;20051;-89
2022/10/28 10:08:56;;;;;;;17.27;2.63;;;23.60;94.40;;;;;;4968477;28;20031;-85
2022/10/28 10:11:45;;;;;;;8.68;2.80;;;23.70;94.30;;;;;;4970400;28;20557;-86
2022/10/28 10:14:15;;;;;;;8.75;2.28;;;23.80;92.00;;;;;;4970621;28;20038;-85
2022/10/28 10:17:09;;;;;;;10.95;2.15;;;23.80;92.60;;;;;;4970147;28;20038;-84
2022/10/28 10:19:59;;;;;;;12.50;2.88;;;23.90;91.00;;;;;;4969604;28;20031;-87
2022/10/28 10:22:33;;;;;;;14.93;2.63;;;23.90;89.60;;;;;;4970435;28;20139;-85
2022/10/28 10:24:59;;;;;;;10.02;2.30;;;23.90;89.80;;;;;;4961250;28;20495;-86
2022/10/28 10:27:27;;;;;;;15.95;2.28;;;23.90;87.70;;;;;;4970626;28;20468;-85
2022/10/28 10:29:54;;;;;;;25.60;3.40;;;24.00;87.60;;;;;;4970478;28;20041;-84
2022/10/28 10:32:32;;;;;;;28.92;4.22;;;24.00;89.60;;;;;;4961583;28;20041;-85
2022/10/28 10:35:19;;;;;;;15.63;3.13;;;24.00;87.10;;;;;;4963569;28;20046;-84
2022/10/28 10:37:46;;;;;;;15.60;3.42;;;24.10;86.70;;;;;;4966513;28;20121;-83
2022/10/28 10:40:15;;;;;;;12.57;2.67;;;24.20;87.20;;;;;;4970469;28;20034;-88
2022/10/28 10:42:40;;;;;;;19.00;3.47;;;24.30;85.70;;;;;;4969941;28;20412;-84
2022/10/28 10:45:20;;;;;;;19.10;3.50;;;24.20;83.40;;;;;;4965805;28;20029;-87
2022/10/28 10:47:45;;;;;;;16.92;3.45;;;24.30;87.00;;;;;;4964606;28;20117;-88
2022/10/28 10:50:29;;;;;;;29.90;4.60;;;24.40;81.10;;;;;;4962592;28;20297;-85
2022/10/28 10:52:58;;;;;;;16.02;2.60;;;24.40;80.80;;;;;;4966144;28;20042;-90
2022/10/28 10:55:39;;;;;;;18.08;3.70;;;24.30;82.60;;;;;;4968880;28;20126;-89
2022/10/28 10:58:14;;;;;;;16.75;3.22;;;24.20;81.80;;;;;;4969586;28;20031;-85
2022/10/28 11:00:44;;;;;;;;;;;24.20;81.60;;;;;;4969957;28;20441;-88
2022/10/28 11:03:19;;;;;;;18.50;3.03;;;24.20;83.00;;;;;;4969624;28;19910;-84
2022/10/28 11:05:55;;;;;;;11.45;3.22;;;24.20;84.50;;;;;;4966006;28;20046;-85
2022/10/28 11:08:47;;;;;;;24.05;3.17;;;24.20;84.80;;;;;;4969680;28;20039;-84
2022/10/28 11:11:30;;;;;;;21.35;3.90;;;24.20;84.80;;;;;;4965828;28;20392;-84
2022/10/28 11:14:07;;;;;;;15.48;3.35;;;24.20;86.40;;;;;;4967100;28;20328;-85
2022/10/28 11:16:33;;;;;;;23.35;2.92;;;24.30;81.90;;;;;;4963865;28;20045;-85
2022/10/28 11:19:38;;;;;;;16.98;2.90;;;24.30;83.00;;;;;;4969147;28;20031;-87
2022/10/28 11:22:13;;;;;;;20.40;3.42;;;24.30;88.40;;;;;;4962830;28;20042;-85
2022/10/28 11:24:59;;;;;;;17.55;4.50;;;24.30;81.10;;;;;;4960222;28;20041;-88
2022/10/28 11:27:30;;;;;;;20.23;3.15;;;24.40;81.60;;;;;;4969077;28;20034;-83
2022/10/28 11:29:58;;;;;;;19.17;3.83;;;24.40;83.30;;;;;;4968249;28;20481;-85
2022/10/28 11:32:52;;;;;;;17.80;3.15;;;24.50;80.60;;;;;;4961650;28;20038;-85
2022/10/28 11:35:50;;;;;;;14.10;3.55;;;24.50;83.50;;;;;;4966058;28;20085;-88
2022/10/28 11:38:36;;;;;;;19.08;2.90;;;24.50;85.00;;;;;;4955241;28;20043;-84
2022/10/28 11:41:21;;;;;;;18.45;2.85;;;24.60;77.90;;;;;;4959766;28;20174;-84
2022/10/28 11:43:55;;;;;;;14.57;3.30;;;24.50;80.40;;;;;;4968876;28;20062;-83
2022/10/28 11:46:36;;;;;;;25.75;3.08;;;24.50;78.20;;;;;;4968977;28;20104;-82
2022/10/28 11:49:21;;;;;;;16.48;2.65;;;24.50;80.80;;;;;;4969324;28;20031;-84
2022/10/28 11:51:46;;;;;;;10.18;2.50;;;24.40;83.30;;;;;;4961446;28;20117;-82
2022/10/28 11:54:19;;;;;;;22.65;3.33;;;24.50;79.50;;;;;;4969054;28;20031;-82
2022/10/28 11:57:08;;;;;;;22.45;3.72;;;24.40;80.00;;;;;;4967763;28;20042;-84
2022/10/28 11:59:56;;;;;;;24.13;3.60;;;24.40;82.30;;;;;;4968257;28;20259;-82
2022/10/28 12:02:33;;;;;;;11.25;2.88;;;24.40;83.20;;;;;;4968960;28;20034;-81
2022/10/28 12:05:23;;;;;;;17.38;3.67;;;24.30;87.30;;;;;;4968572;28;20559;-82
2022/10/28 12:08:29;;;;;;;16.10;3.40;;;24.40;82.90;;;;;;4957848;28;20039;-86
2022/10/28 12:11:06;;;;;;;18.75;3.30;;;24.40;81.40;;;;;;4887899;29;20036;-86
2022/10/28 12:13:58;;;;;;;12.80;3.25;;;24.50;81.80;;;;;;4889292;29;20092;-82
2022/10/28 12:16:40;;;;;;;22.60;3.70;;;24.40;81.20;;;;;;4881566;29;20075;-83
2022/10/28 12:19:22;;;;;;;18.00;4.13;;;24.40;82.40;;;;;;4890802;29;20043;-83
2022/10/28 12:22:14;;;;;;;16.75;3.47;;;24.50;82.90;;;;;;4912304;28;20057;-83
2022/10/28 12:24:42;;;;;;;20.00;3.67;;;24.40;85.60;;;;;;4964272;28;20524;-83
2022/10/28 12:27:26;;;;;;;13.15;3.67;;;24.40;85.90;;;;;;4969375;28;20413;-84
2022/10/28 12:30:01;;;;;;;19.30;3.92;;;24.40;83.40;;;;;;4959519;28;20031;-83
2022/10/28 12:32:31;;;;;;;28.02;4.20;;;24.40;83.70;;;;;;4953865;28;20034;-82
2022/10/28 12:35:15;;;;;;;18.10;3.22;;;24.50;83.40;;;;;;4968359;28;20085;-85
2022/10/28 12:37:56;;;;;;;15.48;4.95;;;24.50;83.50;;;;;;4961048;28;20039;-84
2022/10/28 12:40:27;;;;;;;18.95;3.42;;;24.40;84.50;;;;;;4968451;28;20511;-83
2022/10/28 12:43:02;;;;;;;28.05;4.32;;;24.50;82.00;;;;;;4968512;28;20042;-84
2022/10/28 12:45:30;;;;;;;19.00;4.50;;;24.50;77.30;;;;;;4957715;28;20031;-84
2022/10/28 12:48:07;;;;;;;19.55;4.13;;;24.50;80.70;;;;;;4968306;28;20046;-84
2022/10/28 12:50:45;;;;;;;18.23;3.83;;;24.40;83.70;;;;;;4969044;28;20031;-86
2022/10/28 12:53:40;;;;;;;19.00;3.42;;;24.40;83.30;;;;;;4969003;28;20170;-85
2022/10/28 12:56:19;;;;;;;26.98;3.97;;;24.30;81.60;;;;;;4968211;28;20050;-84
2022/10/28 12:59:05;;;;;;;29.85;3.80;;;24.20;84.10;;;;;;4968777;28;20110;-86
2022/10/28 13:01:33;;;;;;;17.02;3.13;;;24.10;84.10;;;;;;4957179;28;20530;-84
2022/10/28 13:04:00;;;;;;;19.88;2.92;;;24.10;86.00;;;;;;4968468;28;20038;-84
2022/10/28 13:06:54;;;;;;;19.33;3.47;;;24.00;86.40;;;;;;4967264;28;20418;-87
2022/10/28 13:09:29;;;;;;;17.33;3.10;;;23.90;87.70;;;;;;4927604;28;20059;-82
2022/10/28 13:12:06;;;;;;;18.58;2.88;;;23.80;89.80;;;;;;4968562;28;20472;-85
2022/10/28 13:15:02;;;;;;;20.85;3.08;;;23.80;91.00;;;;;;4962957;28;20096;-83
2022/10/28 13:17:49;;;;;;;19.13;4.63;;;23.70;91.00;;;;;;4967290;28;20047;-85
2022/10/28 13:20:42;;;;;;;20.55;4.22;;;23.60;92.40;;;;;;4971524;28;20030;-85
2022/10/28 13:23:29;;;;;;;13.45;2.95;;;23.60;93.00;;;;;;4971382;28;20045;-88
2022/10/28 13:26:18;;;;;;;16.00;3.45;;;23.50;93.50;;;;;;4964290;28;20139;-84